Sanford, Maine
Current Conditions -  °F | °C
As of 9:35 PM on Saturday 25 Oct 2014 (Local Time) from KSFM Reporting Station
Overcast Overcast  
Wind Chill: 52°   Ceiling: 7000
Heat Index: 52°   Visibility: 10mi
Dew Point: 43°   Wind: 5mph
Humidity: 71%   Direction: 220°SW
Pressure: 29.52"   Gusts: NA
Location:  43.44°N, 70.77°W
Report Text: KSFM 260135Z AUTO 22004KT 10SM OVC070 11/06 A2952 RMK AO1
Loading
Personal Weather Stations






























Interactive Weather Map
Tropical Storm Tracking
New forecast layout! Learn more

10-Day Weather Forecast

Advertisements
Track Severe Weather on mobile